Time;durP1;ratioP1;P1;durP2;ratioP2;P2;SDS_P1;SDS_P2;PMS_P1;PMS_P2;Temp;Humidity;BMP_temperature;BMP_pressure;BME280_temperature;BME280_humidity;BME280_pressure;Samples;Min_cycle;Max_cycle;Signal;HPM_P1;HPM_P2
2022/02/25 00:00:26;;;;;;;3.35;1.20;;;3.80;83.50;;;;;;5053051;28;20412;-41
2022/02/25 00:02:52;;;;;;;3.42;1.30;;;3.70;83.40;;;;;;5052917;28;20032;-41
2022/02/25 00:05:17;;;;;;;5.03;1.65;;;3.70;83.50;;;;;;5052677;28;20029;-43
2022/02/25 00:07:44;;;;;;;2.63;1.42;;;3.70;83.50;;;;;;5052860;28;20025;-41
2022/02/25 00:10:12;;;;;;;5.10;1.65;;;3.70;83.50;;;;;;5052635;28;20059;-41
2022/02/25 00:12:38;;;;;;;3.58;1.48;;;3.70;83.50;;;;;;5052739;28;20026;-42
2022/02/25 00:15:05;;;;;;;4.38;1.30;;;3.70;83.50;;;;;;5051202;28;20055;-43
2022/02/25 00:17:30;;;;;;;5.88;1.50;;;3.70;83.50;;;;;;5052692;28;20032;-41
2022/02/25 00:19:56;;;;;;;5.80;1.67;;;3.70;83.50;;;;;;5052721;28;20025;-41
2022/02/25 00:22:21;;;;;;;5.60;1.85;;;3.70;83.60;;;;;;5052595;28;20143;-42
2022/02/25 00:24:47;;;;;;;3.97;1.40;;;3.70;83.60;;;;;;5052595;28;20028;-44
2022/02/25 00:27:13;;;;;;;5.05;1.25;;;3.70;83.60;;;;;;5052432;28;20033;-43
2022/02/25 00:29:38;;;;;;;2.53;1.08;;;3.70;83.60;;;;;;5056691;28;20025;-43
2022/02/25 00:32:04;;;;;;;4.35;1.30;;;3.70;83.60;;;;;;5055315;28;20025;-42
2022/02/25 00:34:30;;;;;;;2.97;1.13;;;3.70;83.50;;;;;;5056795;28;20532;-43
2022/02/25 00:36:55;;;;;;;4.90;1.38;;;3.60;83.40;;;;;;5056458;28;20529;-42
2022/02/25 00:39:21;;;;;;;4.47;1.50;;;3.70;83.50;;;;;;5056465;28;20100;-42
2022/02/25 00:41:47;;;;;;;5.45;1.40;;;3.60;83.40;;;;;;5055379;28;20029;-42
2022/02/25 00:44:12;;;;;;;3.15;1.30;;;3.70;83.50;;;;;;5056465;28;20392;-44
2022/02/25 00:46:38;;;;;;;3.35;1.25;;;3.70;83.40;;;;;;5056379;28;20052;-42
2022/02/25 00:49:03;;;;;;;3.08;1.10;;;3.80;83.40;;;;;;5056338;28;20029;-42
2022/02/25 00:51:29;;;;;;;8.07;1.75;;;3.90;83.20;;;;;;5056299;28;20028;-43
2022/02/25 00:53:54;;;;;;;5.72;1.48;;;3.90;83.00;;;;;;5056253;28;20036;-42
2022/02/25 00:56:21;;;;;;;4.63;1.42;;;4.00;82.80;;;;;;5056135;28;20548;-42
2022/02/25 00:58:47;;;;;;;5.20;1.40;;;4.00;82.70;;;;;;5056127;28;20021;-42
2022/02/25 01:01:14;;;;;;;2.95;1.20;;;4.00;82.50;;;;;;5056371;28;20534;-42
2022/02/25 01:03:40;;;;;;;5.10;1.20;;;4.00;82.40;;;;;;5056034;28;20029;-43
2022/02/25 01:06:05;;;;;;;4.97;1.40;;;4.10;82.40;;;;;;5056041;28;20036;-42
2022/02/25 01:08:32;;;;;;;3.78;0.95;;;4.10;82.40;;;;;;5055942;28;20032;-43
2022/02/25 01:10:57;;;;;;;4.32;1.30;;;4.10;82.30;;;;;;5055932;28;20155;-41
2022/02/25 01:13:23;;;;;;;3.53;1.20;;;4.10;82.40;;;;;;5056074;28;20071;-42
2022/02/25 01:15:48;;;;;;;3.92;1.20;;;4.00;82.30;;;;;;5056020;28;20021;-42
2022/02/25 01:18:14;;;;;;;3.88;1.35;;;4.00;82.40;;;;;;5055838;28;20104;-42
2022/02/25 01:20:40;;;;;;;5.95;1.60;;;4.00;82.40;;;;;;5055853;28;20025;-43
2022/02/25 01:23:07;;;;;;;4.57;1.50;;;3.90;82.30;;;;;;5055661;28;20107;-42
2022/02/25 01:25:32;;;;;;;5.35;1.40;;;3.90;82.30;;;;;;5055636;28;20021;-43
2022/02/25 01:27:58;;;;;;;5.40;1.77;;;3.80;82.30;;;;;;5055642;28;20060;-42
2022/02/25 01:30:24;;;;;;;5.60;1.70;;;3.80;82.30;;;;;;5055501;28;20029;-43
2022/02/25 01:32:49;;;;;;;8.15;1.80;;;3.80;82.20;;;;;;5055481;28;20412;-41
2022/02/25 01:35:15;;;;;;;7.40;2.13;;;3.80;82.30;;;;;;5055340;28;20028;-42
2022/02/25 01:37:40;;;;;;;4.50;1.40;;;3.70;82.20;;;;;;5055432;28;20021;-42
2022/02/25 01:40:07;;;;;;;4.93;1.60;;;3.70;82.10;;;;;;5055130;28;20029;-39
2022/02/25 01:42:43;;;;;;;8.02;1.67;;;3.70;82.20;;;;;;5055312;28;20025;-41
2022/02/25 01:45:09;;;;;;;3.53;1.40;;;3.60;82.20;;;;;;5055227;28;20056;-42
2022/02/25 01:47:34;;;;;;;3.58;1.40;;;3.60;82.30;;;;;;5054086;28;20025;-42
2022/02/25 01:50:00;;;;;;;7.53;2.20;;;3.60;82.30;;;;;;5055184;28;20021;-42
2022/02/25 01:52:27;;;;;;;5.60;1.90;;;3.60;82.30;;;;;;5054129;28;20481;-42
2022/02/25 01:54:52;;;;;;;4.10;1.60;;;3.60;82.40;;;;;;5055156;28;20033;-42
2022/02/25 01:57:18;;;;;;;4.50;1.45;;;3.50;82.30;;;;;;5054910;28;20032;-44
2022/02/25 01:59:44;;;;;;;9.60;2.58;;;3.50;82.40;;;;;;5054995;28;20017;-42
2022/02/25 02:02:10;;;;;;;8.07;2.50;;;3.50;82.50;;;;;;5054814;28;20523;-42
2022/02/25 02:04:36;;;;;;;4.78;1.80;;;3.50;82.50;;;;;;5054873;28;20108;-42
2022/02/25 02:07:02;;;;;;;7.35;2.40;;;3.40;82.50;;;;;;5055040;28;20085;-41
2022/02/25 02:09:28;;;;;;;4.55;2.10;;;3.50;82.60;;;;;;5054879;28;20539;-42
2022/02/25 02:11:55;;;;;;;4.95;2.20;;;3.40;82.60;;;;;;5054760;28;20033;-42
2022/02/25 02:14:22;;;;;;;8.77;2.63;;;3.40;82.70;;;;;;5054679;28;20025;-42
2022/02/25 02:16:50;;;;;;;5.15;2.30;;;3.40;82.80;;;;;;5053280;28;20085;-43
2022/02/25 02:19:16;;;;;;;9.60;2.90;;;3.40;82.90;;;;;;5054792;28;20453;-42
2022/02/25 02:21:48;;;;;;;5.00;2.25;;;3.40;82.90;;;;;;5054734;28;20021;-41
2022/02/25 02:24:14;;;;;;;7.32;2.33;;;3.30;83.00;;;;;;5054506;28;20048;-42
2022/02/25 02:26:40;;;;;;;7.95;3.08;;;3.40;83.00;;;;;;5054406;28;20056;-43
2022/02/25 02:29:07;;;;;;;5.85;2.63;;;3.30;83.10;;;;;;5054309;28;20029;-42
2022/02/25 02:31:34;;;;;;;8.20;2.60;;;3.30;83.10;;;;;;5054228;28;20039;-41
2022/02/25 02:33:59;;;;;;;7.82;2.40;;;3.30;83.10;;;;;;5053038;28;20125;-42
2022/02/25 02:36:25;;;;;;;7.68;2.60;;;3.30;83.10;;;;;;5054063;28;20064;-42
2022/02/25 02:38:51;;;;;;;7.15;2.70;;;3.30;83.10;;;;;;5054224;28;20515;-43
2022/02/25 02:41:17;;;;;;;10.13;3.03;;;3.30;83.20;;;;;;5054092;28;20021;-42
2022/02/25 02:43:43;;;;;;;8.77;2.78;;;3.30;83.20;;;;;;5054102;28;20135;-40
2022/02/25 02:46:09;;;;;;;11.05;3.17;;;3.40;83.20;;;;;;5053883;28;20091;-41
2022/02/25 02:48:35;;;;;;;8.05;2.80;;;3.40;83.20;;;;;;5053983;28;20060;-43
2022/02/25 02:51:01;;;;;;;7.43;2.72;;;3.40;83.20;;;;;;5053406;28;20085;-42
2022/02/25 02:53:27;;;;;;;6.45;2.72;;;3.40;83.20;;;;;;5053856;28;20424;-43
2022/02/25 02:55:53;;;;;;;9.70;2.80;;;3.30;83.20;;;;;;5053896;28;20033;-42
2022/02/25 02:58:19;;;;;;;8.55;3.10;;;3.30;83.20;;;;;;5054092;28;20029;-42
2022/02/25 03:00:47;;;;;;;8.13;2.30;;;3.30;83.20;;;;;;5053817;28;20480;-42
2022/02/25 03:03:12;;;;;;;8.27;2.58;;;3.30;83.30;;;;;;5053773;28;20032;-41
2022/02/25 03:05:40;;;;;;;4.80;2.55;;;3.30;83.30;;;;;;5053771;28;20400;-42
2022/02/25 03:08:06;;;;;;;8.75;2.60;;;3.30;83.20;;;;;;5053776;28;20033;-41
2022/02/25 03:10:34;;;;;;;7.03;2.72;;;3.30;83.20;;;;;;5053798;28;20477;-42
2022/02/25 03:13:00;;;;;;;10.02;2.70;;;3.30;83.30;;;;;;5053806;28;20025;-42
2022/02/25 03:15:26;;;;;;;7.10;2.58;;;3.30;83.30;;;;;;5053386;28;20029;-42
2022/02/25 03:17:52;;;;;;;9.15;2.80;;;3.30;83.90;;;;;;5053701;28;20024;-42
2022/02/25 03:20:18;;;;;;;5.55;2.60;;;3.30;83.40;;;;;;5053369;28;20033;-42
2022/02/25 03:22:43;;;;;;;7.63;2.80;;;3.30;83.40;;;;;;5053442;28;20028;-42
2022/02/25 03:25:09;;;;;;;8.55;2.60;;;3.30;83.30;;;;;;5053482;28;20091;-43
2022/02/25 03:27:35;;;;;;;9.55;3.10;;;3.30;83.30;;;;;;5053595;28;20032;-41
2022/02/25 03:30:01;;;;;;;7.32;2.65;;;3.40;83.40;;;;;;5053526;28;20036;-42
2022/02/25 03:32:27;;;;;;;7.72;2.72;;;3.40;83.40;;;;;;5053071;28;20025;-42
2022/02/25 03:34:53;;;;;;;7.13;2.58;;;3.30;83.40;;;;;;5053120;28;20578;-42
2022/02/25 03:37:19;;;;;;;8.77;2.70;;;3.40;83.40;;;;;;5052994;28;20033;-42
2022/02/25 03:39:45;;;;;;;5.13;2.75;;;3.30;83.30;;;;;;5053032;28;20493;-41
2022/02/25 03:42:10;;;;;;;4.38;2.45;;;3.30;83.40;;;;;;5053046;28;20151;-41
2022/02/25 03:44:36;;;;;;;4.47;2.60;;;3.40;83.40;;;;;;5052886;28;20488;-41
2022/02/25 03:47:03;;;;;;;5.65;2.58;;;3.40;83.40;;;;;;5053194;28;20055;-41
2022/02/25 03:49:28;;;;;;;5.05;2.42;;;3.40;83.40;;;;;;5052826;28;20025;-41
2022/02/25 03:51:54;;;;;;;9.90;2.72;;;3.40;83.40;;;;;;5052893;28;20040;-41
2022/02/25 03:54:19;;;;;;;4.82;2.70;;;3.40;83.40;;;;;;5051415;28;20035;-41
2022/02/25 03:56:45;;;;;;;5.85;2.20;;;3.40;83.40;;;;;;5052697;28;20021;-41
2022/02/25 03:59:11;;;;;;;6.55;2.30;;;3.30;83.30;;;;;;5052790;28;20017;-41
2022/02/25 04:01:37;;;;;;;7.55;2.92;;;3.30;83.30;;;;;;5052478;28;20039;-43
2022/02/25 04:04:03;;;;;;;4.90;2.50;;;3.30;83.30;;;;;;5052141;28;20108;-43
2022/02/25 04:06:30;;;;;;;11.00;1.98;;;3.30;83.40;;;;;;5052718;28;20544;-43
2022/02/25 04:08:55;;;;;;;4.22;1.95;;;3.30;83.30;;;;;;5052832;28;20029;-44
2022/02/25 04:11:21;;;;;;;6.65;2.25;;;3.30;83.30;;;;;;5051274;28;20086;-43
2022/02/25 04:13:47;;;;;;;10.15;2.35;;;3.30;83.30;;;;;;5052529;28;20036;-41
2022/02/25 04:16:14;;;;;;;8.40;2.50;;;3.30;83.30;;;;;;5052637;28;20170;-41
2022/02/25 04:18:40;;;;;;;7.85;3.00;;;3.30;83.30;;;;;;5052787;28;20024;-41
2022/02/25 04:21:06;;;;;;;10.32;2.55;;;3.30;83.30;;;;;;5052511;28;20457;-41
2022/02/25 04:23:32;;;;;;;10.30;2.30;;;3.30;83.30;;;;;;5052461;28;20048;-40
2022/02/25 04:25:58;;;;;;;8.68;2.80;;;3.30;83.20;;;;;;5052554;28;20525;-42
2022/02/25 04:28:24;;;;;;;6.05;2.25;;;3.30;83.20;;;;;;5052509;28;20167;-42
2022/02/25 04:30:50;;;;;;;6.40;2.08;;;3.30;83.20;;;;;;5052484;28;20064;-41
2022/02/25 04:33:15;;;;;;;9.45;2.55;;;3.30;83.30;;;;;;5052522;28;20495;-41
2022/02/25 04:35:42;;;;;;;7.60;2.72;;;3.30;83.40;;;;;;5052183;28;20369;-42
2022/02/25 04:38:08;;;;;;;7.30;2.17;;;3.30;83.40;;;;;;5052516;28;20028;-41
2022/02/25 04:40:35;;;;;;;10.25;2.28;;;3.30;83.40;;;;;;5052328;28;20078;-42
2022/02/25 04:43:01;;;;;;;5.65;2.35;;;3.30;83.40;;;;;;5052513;28;20108;-41
2022/02/25 04:45:27;;;;;;;11.68;2.35;;;3.30;83.40;;;;;;5052077;28;20049;-41
2022/02/25 04:47:52;;;;;;;6.57;2.13;;;3.30;83.40;;;;;;5051112;28;20029;-42
2022/02/25 04:50:18;;;;;;;9.55;2.10;;;3.30;83.50;;;;;;5052201;28;20053;-42
2022/02/25 04:52:44;;;;;;;12.15;2.58;;;3.30;83.50;;;;;;5052243;28;20028;-43
2022/02/25 04:55:11;;;;;;;9.25;2.60;;;3.30;83.60;;;;;;5052130;28;20036;-40
2022/02/25 04:57:37;;;;;;;8.90;2.30;;;3.30;83.60;;;;;;5052164;28;20074;-42
2022/02/25 05:00:10;;;;;;;12.65;2.65;;;3.20;83.50;;;;;;5052413;28;20025;-43
2022/02/25 05:02:39;;;;;;;;;;;3.20;83.60;;;;;;5052532;28;20101;-42
2022/02/25 05:05:06;;;;;;;7.53;2.53;;;3.20;83.60;;;;;;5052099;28;19909;-43
2022/02/25 05:07:32;;;;;;;8.60;2.53;;;3.20;83.50;;;;;;5052125;28;20044;-43
2022/02/25 05:09:57;;;;;;;11.65;2.47;;;3.20;83.60;;;;;;5051939;28;20032;-41
2022/02/25 05:12:23;;;;;;;8.50;2.78;;;3.20;83.60;;;;;;5051965;28;20034;-43
2022/02/25 05:20:26;;;;;;;12.07;2.40;;;3.20;83.60;;;;;;5055788;28;20048;-43
2022/02/25 05:22:54;;;;;;;11.40;3.13;;;3.20;83.60;;;;;;5055510;28;20061;-43
2022/02/25 05:25:21;;;;;;;7.45;2.20;;;3.20;83.70;;;;;;5055593;28;20024;-42
2022/02/25 05:27:47;;;;;;;12.88;2.95;;;3.20;83.80;;;;;;5055799;28;20071;-43
2022/02/25 05:30:15;;;;;;;8.63;2.17;;;3.20;83.80;;;;;;5055483;28;20025;-41
2022/02/25 05:32:40;;;;;;;12.70;2.60;;;3.20;83.80;;;;;;5055402;28;20485;-44
2022/02/25 05:35:08;;;;;;;11.20;2.47;;;3.20;83.80;;;;;;5055770;28;20100;-42
2022/02/25 05:37:33;;;;;;;8.02;2.55;;;3.20;83.90;;;;;;5055263;28;20499;-43
2022/02/25 05:39:59;;;;;;;6.80;2.50;;;3.30;84.00;;;;;;5055395;28;20033;-43
2022/02/25 05:42:24;;;;;;;7.60;2.38;;;3.30;84.00;;;;;;5054273;28;20457;-43
2022/02/25 05:44:50;;;;;;;13.50;2.45;;;3.30;83.80;;;;;;5055100;28;20493;-44
2022/02/25 05:47:17;;;;;;;11.15;2.58;;;3.40;83.90;;;;;;5055192;28;20025;-43
2022/02/25 05:49:42;;;;;;;7.78;2.67;;;3.40;83.90;;;;;;5055098;28;20083;-43
2022/02/25 05:52:08;;;;;;;7.35;2.45;;;3.50;83.90;;;;;;5055074;28;20029;-42
2022/02/25 05:54:33;;;;;;;10.43;2.95;;;3.50;83.80;;;;;;5055009;28;20078;-44
2022/02/25 05:56:59;;;;;;;8.57;2.20;;;3.50;83.90;;;;;;5055071;28;20033;-42
2022/02/25 05:59:24;;;;;;;9.70;2.10;;;3.50;83.80;;;;;;5054865;28;20063;-43
2022/02/25 06:01:50;;;;;;;9.75;2.40;;;3.50;83.70;;;;;;5054965;28;20024;-43
2022/02/25 06:04:15;;;;;;;12.52;2.80;;;3.50;83.70;;;;;;5054892;28;20028;-44
2022/02/25 06:06:41;;;;;;;15.68;2.42;;;3.50;83.80;;;;;;5054850;28;20020;-44
2022/02/25 06:09:06;;;;;;;9.18;2.50;;;3.60;83.90;;;;;;5054877;28;20025;-44
2022/02/25 06:11:32;;;;;;;9.32;2.80;;;3.60;83.80;;;;;;5054835;28;20466;-43
2022/02/25 06:13:58;;;;;;;14.82;2.92;;;3.70;83.80;;;;;;5054732;28;20025;-43
2022/02/25 06:16:23;;;;;;;11.15;2.88;;;3.70;83.70;;;;;;5054785;28;20108;-42
2022/02/25 06:18:49;;;;;;;8.65;3.00;;;3.80;83.60;;;;;;5054653;28;20470;-44
2022/02/25 06:21:14;;;;;;;10.45;2.40;;;3.90;83.60;;;;;;5053214;28;20013;-44
2022/02/25 06:23:40;;;;;;;12.05;2.53;;;3.90;83.50;;;;;;5054598;28;20025;-44
2022/02/25 06:26:05;;;;;;;11.77;2.30;;;4.00;83.50;;;;;;5053520;28;20025;-45
2022/02/25 06:28:31;;;;;;;15.15;2.72;;;4.00;83.40;;;;;;5054424;28;20025;-44
2022/02/25 06:30:57;;;;;;;10.70;2.83;;;4.00;83.60;;;;;;5054308;28;20071;-43
2022/02/25 06:33:22;;;;;;;12.50;2.85;;;4.00;83.60;;;;;;5054483;28;20027;-44
2022/02/25 06:35:48;;;;;;;19.10;3.25;;;4.10;83.80;;;;;;5052968;28;20107;-43
2022/02/25 06:38:13;;;;;;;15.13;3.40;;;4.10;83.80;;;;;;5054185;28;20017;-44
2022/02/25 06:40:39;;;;;;;12.18;3.05;;;4.10;84.10;;;;;;5054174;28;20017;-44
2022/02/25 06:43:05;;;;;;;10.82;2.90;;;4.10;84.50;;;;;;5054095;28;20101;-44
2022/02/25 06:45:30;;;;;;;17.50;3.08;;;4.10;84.60;;;;;;5053771;28;20056;-45
2022/02/25 06:47:56;;;;;;;15.18;3.15;;;4.10;85.00;;;;;;5054270;28;20025;-44
2022/02/25 06:50:21;;;;;;;15.20;2.65;;;4.00;85.20;;;;;;5053969;28;20025;-44
2022/02/25 06:52:47;;;;;;;11.95;2.97;;;4.00;85.20;;;;;;5053839;28;20028;-43
2022/02/25 06:55:14;;;;;;;12.32;2.97;;;4.10;85.50;;;;;;5052416;28;20098;-42
2022/02/25 06:57:44;;;;;;;16.65;3.30;;;4.10;86.20;;;;;;5053848;28;20429;-43
2022/02/25 07:00:13;;;;;;;15.07;3.90;;;4.10;86.40;;;;;;5053643;28;20017;-44
2022/02/25 07:02:39;;;;;;;14.48;3.00;;;4.00;86.60;;;;;;5052346;28;20017;-43
2022/02/25 07:05:05;;;;;;;15.05;3.28;;;4.10;86.80;;;;;;5053937;28;20100;-42
2022/02/25 07:07:31;;;;;;;11.48;3.30;;;4.10;87.10;;;;;;5053617;28;20433;-44
2022/02/25 07:09:56;;;;;;;13.82;3.42;;;4.10;87.40;;;;;;5053540;28;20028;-44
2022/02/25 07:12:22;;;;;;;14.25;4.03;;;4.10;87.40;;;;;;5053523;28;20102;-44
2022/02/25 07:14:49;;;;;;;14.75;3.83;;;4.10;87.70;;;;;;5053615;28;20033;-44
2022/02/25 07:17:14;;;;;;;10.98;3.20;;;4.10;88.00;;;;;;5053332;28;20044;-44
2022/02/25 07:19:40;;;;;;;10.55;3.30;;;4.20;88.20;;;;;;5053480;28;20021;-45
2022/02/25 07:22:06;;;;;;;13.07;3.20;;;4.20;88.20;;;;;;5053666;28;20024;-44
2022/02/25 07:24:31;;;;;;;11.63;3.17;;;4.20;88.20;;;;;;5053271;28;20023;-44
2022/02/25 07:26:57;;;;;;;17.02;4.65;;;4.20;88.20;;;;;;5051968;28;20052;-45
2022/02/25 07:29:23;;;;;;;18.30;4.05;;;4.30;88.30;;;;;;5053278;28;20037;-44
2022/02/25 07:31:49;;;;;;;17.52;3.40;;;4.30;88.40;;;;;;5053241;28;20059;-43
2022/02/25 07:34:14;;;;;;;14.20;3.22;;;4.30;88.60;;;;;;5053127;28;20081;-46
2022/02/25 07:36:40;;;;;;;14.05;3.72;;;4.40;88.50;;;;;;5053234;28;20116;-45
2022/02/25 07:39:05;;;;;;;14.68;3.47;;;4.40;88.50;;;;;;5053169;28;20021;-45
2022/02/25 07:41:31;;;;;;;12.52;3.22;;;4.40;88.30;;;;;;5053053;28;20150;-44
2022/02/25 07:43:56;;;;;;;16.05;3.60;;;4.50;88.50;;;;;;5053018;28;20039;-42
2022/02/25 07:46:22;;;;;;;16.40;3.08;;;4.50;88.50;;;;;;5052845;28;20056;-45
2022/02/25 07:48:48;;;;;;;12.10;3.08;;;4.50;88.40;;;;;;5053058;28;20028;-45
2022/02/25 07:51:13;;;;;;;14.52;2.92;;;4.50;88.40;;;;;;5052942;28;20469;-45
2022/02/25 07:53:39;;;;;;;12.32;3.25;;;4.60;88.40;;;;;;5052917;28;20103;-44
2022/02/25 07:56:04;;;;;;;14.57;3.45;;;4.60;88.60;;;;;;5052772;28;20031;-44
2022/02/25 07:58:32;;;;;;;13.55;3.40;;;4.60;88.70;;;;;;5052847;28;20017;-45
2022/02/25 08:00:58;;;;;;;11.23;3.20;;;4.60;88.70;;;;;;5053049;28;20412;-47
2022/02/25 08:03:23;;;;;;;11.05;3.40;;;4.60;88.70;;;;;;5052656;28;20107;-43
2022/02/25 08:05:49;;;;;;;15.85;3.88;;;4.70;88.80;;;;;;5052855;28;20052;-44
2022/02/25 08:08:15;;;;;;;16.00;3.45;;;4.70;88.90;;;;;;5052886;28;20021;-44
2022/02/25 08:10:40;;;;;;;12.70;3.33;;;4.70;88.90;;;;;;5052798;28;20032;-44
2022/02/25 08:13:08;;;;;;;10.32;4.00;;;4.80;88.80;;;;;;5052503;28;20039;-44
2022/02/25 08:15:35;;;;;;;13.55;3.75;;;4.80;88.70;;;;;;5052443;28;20021;-47
2022/02/25 08:18:02;;;;;;;16.65;3.17;;;4.90;88.70;;;;;;5052638;28;20021;-44
2022/02/25 08:20:27;;;;;;;7.18;2.50;;;4.90;88.60;;;;;;5052716;28;20021;-45
2022/02/25 08:22:57;;;;;;;9.07;2.53;;;5.00;88.40;;;;;;5052499;28;20104;-44
2022/02/25 08:25:23;;;;;;;6.13;2.05;;;5.10;88.20;;;;;;5052487;28;20028;-48
2022/02/25 08:27:48;;;;;;;10.25;2.85;;;5.30;88.10;;;;;;5052520;28;20036;-45
2022/02/25 08:30:14;;;;;;;14.57;2.88;;;5.40;87.90;;;;;;5052444;28;20043;-46
2022/02/25 08:32:45;;;;;;;13.63;2.53;;;5.50;87.60;;;;;;5052305;28;20049;-45
2022/02/25 08:35:11;;;;;;;12.98;3.45;;;5.50;87.40;;;;;;5052417;28;20075;-45
2022/02/25 08:37:40;;;;;;;11.10;2.10;;;5.70;87.30;;;;;;5052576;28;20179;-45
2022/02/25 08:40:07;;;;;;;14.48;3.85;;;5.70;87.10;;;;;;5052417;28;20021;-44
2022/02/25 08:42:35;;;;;;;14.30;2.30;;;5.90;86.90;;;;;;5052356;28;20030;-44
2022/02/25 08:45:03;;;;;;;14.18;3.13;;;5.90;86.60;;;;;;5052180;28;20052;-46
2022/02/25 08:47:29;;;;;;;10.60;2.97;;;6.00;86.30;;;;;;5052583;28;20489;-47
2022/02/25 08:49:54;;;;;;;13.27;2.58;;;6.10;85.80;;;;;;5055160;28;20060;-47
2022/02/25 08:52:20;;;;;;;15.18;2.40;;;6.20;85.60;;;;;;5056241;28;20142;-45
2022/02/25 08:54:45;;;;;;;12.98;2.65;;;6.20;85.40;;;;;;5056243;28;20032;-45
2022/02/25 08:57:11;;;;;;;12.48;2.90;;;6.30;85.20;;;;;;5055984;28;20025;-47
2022/02/25 08:59:38;;;;;;;11.25;2.55;;;6.30;85.10;;;;;;5054692;28;20464;-45
2022/02/25 09:02:05;;;;;;;11.77;3.38;;;6.30;84.60;;;;;;5056124;28;20048;-46
2022/02/25 09:04:31;;;;;;;10.45;3.17;;;6.40;84.50;;;;;;5055838;28;20469;-45
2022/02/25 09:06:57;;;;;;;13.00;2.63;;;6.50;84.20;;;;;;5056052;28;20032;-45
2022/02/25 09:09:22;;;;;;;9.50;2.70;;;6.50;83.40;;;;;;5055731;28;20040;-48
2022/02/25 09:11:48;;;;;;;11.90;2.53;;;6.60;83.10;;;;;;5055937;28;20031;-51
2022/02/25 09:14:13;;;;;;;12.15;2.60;;;6.70;82.70;;;;;;5055910;28;20056;-44
2022/02/25 09:16:39;;;;;;;14.10;2.95;;;6.80;82.50;;;;;;5055722;28;20021;-46
2022/02/25 09:19:07;;;;;;;15.80;2.95;;;6.90;82.10;;;;;;5054494;28;20358;-48
2022/02/25 09:21:33;;;;;;;15.43;2.70;;;7.00;81.80;;;;;;5055755;28;20431;-46
2022/02/25 09:23:58;;;;;;;10.90;2.63;;;7.00;81.70;;;;;;5055599;28;20063;-45
2022/02/25 09:26:24;;;;;;;11.13;2.30;;;7.10;81.50;;;;;;5055499;28;20481;-48
2022/02/25 09:28:50;;;;;;;14.38;2.83;;;7.30;81.40;;;;;;5055665;28;20033;-45
2022/02/25 09:31:16;;;;;;;17.05;2.97;;;7.40;80.50;;;;;;5055517;28;20339;-42
2022/02/25 09:33:42;;;;;;;9.55;2.45;;;7.50;79.30;;;;;;5055373;28;20028;-46
2022/02/25 09:36:08;;;;;;;12.00;2.55;;;7.60;78.60;;;;;;5055644;28;20052;-42
2022/02/25 09:38:34;;;;;;;8.30;2.30;;;7.60;78.10;;;;;;5055391;28;20388;-45
2022/02/25 09:41:01;;;;;;;14.98;2.95;;;7.70;78.00;;;;;;5055328;28;20130;-44
2022/02/25 09:43:29;;;;;;;10.32;2.97;;;7.70;76.60;;;;;;5055735;28;20461;-49
2022/02/25 09:45:55;;;;;;;15.40;2.88;;;7.70;76.00;;;;;;5055096;28;20045;-46
2022/02/25 09:48:20;;;;;;;8.98;2.30;;;7.70;76.30;;;;;;5055182;28;20060;-46
2022/02/25 09:50:51;;;;;;;4.47;1.65;;;7.60;76.10;;;;;;5055179;28;20056;-45
2022/02/25 09:53:18;;;;;;;8.15;1.70;;;7.50;76.50;;;;;;5055022;28;20066;-48
2022/02/25 09:55:44;;;;;;;12.95;2.28;;;7.40;76.80;;;;;;5054969;28;20029;-45
2022/02/25 09:58:09;;;;;;;14.32;2.65;;;7.30;76.40;;;;;;5054900;28;20092;-45
2022/02/25 10:00:38;;;;;;;16.35;2.90;;;7.30;76.30;;;;;;5053478;28;20494;-44
2022/02/25 10:03:06;;;;;;;12.40;2.35;;;7.30;76.60;;;;;;5054871;28;20021;-46
2022/02/25 10:05:34;;;;;;;11.88;2.53;;;7.20;77.00;;;;;;5054747;28;20028;-46
2022/02/25 10:08:20;;;;;;;10.85;2.40;;;7.30;77.50;;;;;;5054963;28;20494;-46
2022/02/25 10:10:48;;;;;;;11.82;2.58;;;7.30;77.60;;;;;;5054720;28;20025;-44
2022/02/25 10:13:17;;;;;;;12.55;2.92;;;7.30;77.80;;;;;;5054578;28;20100;-44
2022/02/25 10:15:43;;;;;;;10.25;2.40;;;7.20;77.90;;;;;;5054587;28;20477;-45
2022/02/25 10:18:12;;;;;;;13.32;3.20;;;7.20;78.20;;;;;;5054853;28;20408;-47
2022/02/25 10:20:38;;;;;;;10.77;2.45;;;7.20;78.30;;;;;;5054460;28;20025;-44
2022/02/25 10:23:25;;;;;;;9.70;2.75;;;7.20;78.40;;;;;;5054488;28;20029;-45
2022/02/25 10:25:52;;;;;;;15.65;2.90;;;7.30;78.60;;;;;;5054407;28;20031;-48
2022/02/25 10:28:29;;;;;;;9.13;2.58;;;7.40;79.00;;;;;;5054386;28;20032;-46
2022/02/25 10:31:21;;;;;;;14.65;2.72;;;7.50;78.10;;;;;;5054363;28;20477;-45
2022/02/25 10:34:01;;;;;;;9.75;2.58;;;7.50;77.80;;;;;;5054187;28;20052;-45
2022/02/25 10:36:48;;;;;;;14.60;3.00;;;7.50;77.80;;;;;;5054215;28;20079;-46
2022/02/25 10:39:29;;;;;;;12.70;2.67;;;7.50;77.60;;;;;;5053885;28;20040;-45
2022/02/25 10:42:11;;;;;;;9.23;1.90;;;7.50;78.00;;;;;;5054446;28;20047;-48
2022/02/25 10:44:45;;;;;;;13.10;2.53;;;7.40;78.20;;;;;;5054211;28;20055;-47
2022/02/25 10:47:25;;;;;;;10.93;2.50;;;7.40;78.40;;;;;;5054267;28;20029;-48
2022/02/25 10:49:59;;;;;;;7.13;2.13;;;7.40;78.60;;;;;;5052668;28;20028;-46
2022/02/25 10:52:33;;;;;;;;;;;7.40;78.70;;;;;;5054419;28;20029;-45
2022/02/25 10:55:00;;;;;;;11.90;2.30;;;7.40;78.90;;;;;;5053941;28;19905;-45
2022/02/25 10:57:27;;;;;;;8.88;1.85;;;7.40;79.00;;;;;;5053700;28;20510;-45
2022/02/25 10:59:54;;;;;;;10.63;2.17;;;7.30;79.30;;;;;;5053814;28;20384;-47
2022/02/25 11:02:25;;;;;;;13.30;2.20;;;7.20;79.80;;;;;;5052447;28;20396;-46
2022/02/25 11:04:59;;;;;;;13.77;2.75;;;7.00;80.30;;;;;;5053988;28;20048;-45
2022/02/25 11:07:28;;;;;;;9.10;2.28;;;6.90;80.90;;;;;;5053655;28;20013;-46
2022/02/25 11:09:54;;;;;;;13.25;2.50;;;6.80;81.40;;;;;;5053728;28;20033;-45
2022/02/25 11:12:19;;;;;;;11.35;2.40;;;6.80;81.90;;;;;;5051985;28;20075;-45
2022/02/25 11:14:46;;;;;;;7.78;2.50;;;6.80;82.10;;;;;;5053475;28;20470;-45
2022/02/25 11:17:12;;;;;;;9.63;2.30;;;6.80;82.60;;;;;;5053419;28;20526;-47
2022/02/25 11:19:40;;;;;;;6.88;2.15;;;6.90;82.60;;;;;;5053480;28;20071;-44
2022/02/25 11:22:08;;;;;;;10.55;1.90;;;6.80;82.70;;;;;;5053267;28;20060;-45
2022/02/25 11:24:37;;;;;;;9.35;2.15;;;6.80;82.50;;;;;;5053325;28;20484;-45
2022/02/25 11:27:04;;;;;;;11.55;1.90;;;6.70;82.40;;;;;;5053237;28;20081;-47
2022/02/25 11:29:32;;;;;;;11.20;2.40;;;6.70;82.40;;;;;;5053218;28;20035;-45
2022/02/25 11:32:02;;;;;;;10.88;2.65;;;6.70;82.30;;;;;;5053133;28;20416;-45
2022/02/25 11:34:28;;;;;;;7.55;2.00;;;6.70;82.20;;;;;;5053094;28;20043;-46
2022/02/25 11:36:54;;;;;;;8.38;2.15;;;6.70;82.00;;;;;;5053110;28;20495;-44
2022/02/25 11:39:28;;;;;;;9.23;2.05;;;6.70;82.10;;;;;;5053066;28;20104;-45
2022/02/25 11:41:57;;;;;;;10.20;2.10;;;6.70;82.10;;;;;;5052935;28;20472;-45
2022/02/25 11:44:24;;;;;;;12.88;2.20;;;6.70;82.30;;;;;;5053006;28;20473;-45
2022/02/25 11:46:51;;;;;;;11.90;2.92;;;6.70;82.40;;;;;;5052916;28;20036;-45
2022/02/25 11:49:23;;;;;;;10.00;2.45;;;6.70;82.40;;;;;;5052782;28;20029;-47
2022/02/25 11:51:49;;;;;;;17.45;2.95;;;6.80;82.40;;;;;;5053291;28;20044;-46
2022/02/25 11:54:28;;;;;;;11.48;2.30;;;6.80;82.10;;;;;;5052785;28;20025;-45
2022/02/25 11:56:57;;;;;;;16.67;2.92;;;6.90;82.00;;;;;;5053061;28;20101;-48
2022/02/25 11:59:31;;;;;;;10.07;2.53;;;6.90;82.10;;;;;;5052788;28;20025;-46
2022/02/25 12:02:16;;;;;;;13.93;2.72;;;6.80;82.10;;;;;;5052840;28;20029;-46
2022/02/25 12:04:54;;;;;;;10.00;2.35;;;6.70;82.50;;;;;;5052707;28;20025;-45
2022/02/25 12:07:32;;;;;;;11.48;2.38;;;6.60;82.80;;;;;;5052745;28;20025;-49
2022/02/25 12:10:12;;;;;;;8.77;1.83;;;6.60;83.40;;;;;;5052704;28;20465;-47
2022/02/25 12:13:00;;;;;;;12.75;2.50;;;6.60;83.70;;;;;;5052871;28;20566;-45
2022/02/25 12:15:38;;;;;;;9.98;2.28;;;6.70;84.00;;;;;;5052837;28;20075;-47
2022/02/25 12:18:06;;;;;;;8.98;2.30;;;6.80;84.00;;;;;;5051372;28;20392;-47
2022/02/25 12:20:46;;;;;;;8.18;2.20;;;7.00;84.50;;;;;;5052606;28;20492;-48
2022/02/25 12:23:21;;;;;;;8.38;2.00;;;7.20;84.20;;;;;;5051790;28;20053;-47
2022/02/25 12:25:55;;;;;;;15.57;2.72;;;7.40;84.00;;;;;;5052863;28;20048;-48
2022/02/25 12:28:22;;;;;;;14.00;2.60;;;7.50;83.80;;;;;;5052857;28;20481;-49
2022/02/25 12:31:01;;;;;;;15.60;3.08;;;7.50;83.50;;;;;;5052858;28;20408;-46
2022/02/25 12:33:44;;;;;;;17.33;3.75;;;7.50;83.20;;;;;;5052369;28;20477;-45
2022/02/25 12:36:27;;;;;;;14.65;3.88;;;7.40;82.90;;;;;;5052652;28;20056;-47
2022/02/25 12:39:06;;;;;;;17.95;2.97;;;7.40;82.90;;;;;;5052510;28;20036;-50
2022/02/25 12:41:34;;;;;;;13.45;2.80;;;7.30;82.10;;;;;;5052365;28;20083;-48
2022/02/25 12:44:02;;;;;;;14.88;3.22;;;7.40;82.20;;;;;;5052479;28;20018;-46
2022/02/25 12:46:31;;;;;;;15.75;2.80;;;7.50;82.30;;;;;;5052211;28;20558;-47
2022/02/25 12:48:58;;;;;;;14.15;3.20;;;7.60;82.20;;;;;;5052461;28;20422;-47
2022/02/25 12:51:24;;;;;;;14.23;3.13;;;7.80;82.00;;;;;;5052123;28;20029;-46
2022/02/25 12:53:56;;;;;;;13.20;3.10;;;7.90;81.60;;;;;;5052376;28;20028;-49
2022/02/25 12:56:27;;;;;;;12.43;3.05;;;7.90;81.10;;;;;;5052264;28;20035;-48
2022/02/25 12:58:58;;;;;;;13.48;2.63;;;7.90;81.20;;;;;;5052231;28;20491;-51